Time;durP1;ratioP1;P1;durP2;ratioP2;P2;SDS_P1;SDS_P2;PMS_P1;PMS_P2;Temp;Humidity;BMP_temperature;BMP_pressure;BME280_temperature;BME280_humidity;BME280_pressure;Samples;Min_cycle;Max_cycle;Signal;HPM_P1;HPM_P2
2022/02/25 00:00:25;;;;;;;17.25;9.80;;;;;;;4.95;68.15;99848.19;1782133;80;21540;-80
2022/02/25 00:02:53;;;;;;;18.10;9.20;;;;;;;5.03;68.31;99855.87;1781604;79;20984;-81
2022/02/25 00:05:20;;;;;;;20.88;9.13;;;;;;;5.12;68.40;99855.26;1781877;80;21042;-81
2022/02/25 00:07:46;;;;;;;16.65;8.68;;;;;;;5.21;68.47;99843.81;1782010;80;21042;-81
2022/02/25 00:10:13;;;;;;;15.68;7.85;;;;;;;5.31;68.51;99840.20;1782126;80;21098;-81
2022/02/25 00:12:40;;;;;;;14.33;7.83;;;;;;;5.42;68.51;99833.20;1782269;80;21042;-81
2022/02/25 00:15:07;;;;;;;20.43;8.93;;;;;;;5.54;68.50;99833.98;1781899;80;21742;-81
2022/02/25 00:17:36;;;;;;;18.05;8.00;;;;;;;5.63;68.50;99829.03;1781703;79;20988;-81
2022/02/25 00:20:02;;;;;;;15.13;7.90;;;;;;;5.73;68.48;99826.70;1781559;79;21055;-81
2022/02/25 00:22:29;;;;;;;16.87;7.50;;;;;;;5.82;68.49;99824.36;1781399;80;21042;-81
2022/02/25 00:24:55;;;;;;;18.07;7.78;;;;;;;5.90;68.53;99818.05;1781204;80;21058;-81
2022/02/25 00:27:22;;;;;;;15.93;7.75;;;;;;;5.97;68.48;99818.30;1781576;80;21750;-81
2022/02/25 00:29:49;;;;;;;17.05;7.62;;;;;;;6.06;68.45;99828.53;1781415;79;21128;-81
2022/02/25 00:32:15;;;;;;;13.25;7.25;;;;;;;6.12;68.45;99822.17;1781655;80;21610;-81
2022/02/25 00:34:42;;;;;;;18.42;8.20;;;;;;;6.18;68.43;99819.75;1781515;80;21051;-81
2022/02/25 00:37:09;;;;;;;13.65;8.08;;;;;;;6.24;68.42;99830.36;1781429;80;21396;-81
2022/02/25 00:39:35;;;;;;;14.20;7.70;;;;;;;6.29;68.41;99824.84;1781675;80;21738;-80
2022/02/25 00:42:05;;;;;;;16.15;7.60;;;;;;;6.33;68.39;99822.78;1781450;80;21391;-81
2022/02/25 00:44:31;;;;;;;13.50;7.70;;;;;;;6.43;68.46;99822.59;1781544;80;21042;-81
2022/02/25 00:46:58;;;;;;;16.95;7.95;;;;;;;6.50;68.42;99813.20;1781413;80;21592;-80
2022/02/25 00:49:24;;;;;;;11.95;7.50;;;;;;;6.55;68.39;99800.70;1781830;80;21054;-80
2022/02/25 00:51:51;;;;;;;15.40;7.55;;;;;;;6.63;68.40;99808.75;1781550;80;22513;-81
2022/02/25 00:54:18;;;;;;;17.35;8.60;;;;;;;6.71;68.34;99806.33;1781579;80;21054;-80
2022/02/25 00:56:44;;;;;;;13.22;7.30;;;;;;;6.80;68.33;99811.79;1781606;80;21545;-80
2022/02/25 00:59:11;;;;;;;15.00;7.95;;;;;;;6.89;68.30;99810.71;1781532;80;21074;-81
2022/02/25 01:01:38;;;;;;;15.95;7.53;;;;;;;6.96;68.25;99802.57;1781874;80;20999;-80
2022/02/25 01:04:05;;;;;;;13.58;7.60;;;;;;;7.05;68.19;99808.46;1781446;80;21727;-80
2022/02/25 01:06:31;;;;;;;13.70;6.85;;;;;;;7.12;68.12;99800.79;1781560;80;21532;-79
2022/02/25 01:08:58;;;;;;;12.35;6.70;;;;;;;7.17;68.01;99805.72;1781630;80;21643;-80
2022/02/25 01:11:24;;;;;;;13.65;7.22;;;;;;;7.22;67.94;99805.81;1781804;79;21011;-81
2022/02/25 01:13:51;;;;;;;11.57;6.58;;;;;;;7.25;67.86;99816.36;1781497;79;21074;-80
2022/02/25 01:16:19;;;;;;;13.98;6.85;;;;;;;7.27;67.79;99814.66;1781711;80;21739;-81
2022/02/25 01:18:46;;;;;;;12.37;6.00;;;;;;;7.28;67.72;99817.75;1781533;80;21023;-80
2022/02/25 01:21:13;;;;;;;17.82;6.60;;;;;;;7.29;67.66;99822.12;1781201;80;21639;-80
2022/02/25 01:23:39;;;;;;;10.78;6.17;;;;;;;7.31;67.64;99821.73;1781767;80;21074;-80
2022/02/25 01:26:06;;;;;;;14.47;6.58;;;;;;;7.30;67.61;99832.16;1781395;79;21082;-81
2022/02/25 01:28:35;;;;;;;10.43;6.22;;;;;;;7.31;67.58;99827.40;1781495;80;21743;-80
2022/02/25 01:31:02;;;;;;;11.55;6.28;;;;;;;7.31;67.58;99829.59;1781161;80;20984;-80
2022/02/25 01:33:29;;;;;;;12.30;6.05;;;;;;;7.37;67.61;99849.78;1781734;80;21110;-81
2022/02/25 01:35:56;;;;;;;6.35;3.52;;;;;;;7.42;67.59;99887.44;1781508;80;21104;-80
2022/02/25 01:38:22;;;;;;;2.08;1.05;;;;;;;7.45;67.55;99957.31;1781614;80;21014;-80
2022/02/25 01:40:50;;;;;;;3.42;1.10;;;;;;;7.15;66.98;99970.08;1781396;79;22443;-80
2022/02/25 01:43:17;;;;;;;1.62;1.07;;;;;;;6.73;67.21;99975.50;1781466;80;21556;-80
2022/02/25 01:45:43;;;;;;;0.70;0.60;;;;;;;6.49;67.61;99974.81;1781518;80;20999;-80
2022/02/25 01:48:10;;;;;;;1.77;0.80;;;;;;;6.30;67.82;99972.96;1781456;80;21063;-81
2022/02/25 01:50:37;;;;;;;1.72;0.72;;;;;;;6.16;67.86;99975.61;1781710;80;21133;-80
2022/02/25 01:53:06;;;;;;;1.27;0.53;;;;;;;6.03;67.87;99976.52;1781512;80;22553;-80
2022/02/25 01:55:36;;;;;;;1.60;0.42;;;;;;;5.93;68.01;99984.89;1752767;80;41761;-80
2022/02/25 01:58:03;;;;;;;1.00;0.42;;;;;;;5.84;67.80;100004.19;1781207;80;21031;-80
2022/02/25 02:00:30;;;;;;;0.40;0.40;;;;;;;5.72;67.59;100001.17;1781618;80;21127;-80
2022/02/25 02:02:56;;;;;;;3.12;0.40;;;;;;;5.63;67.68;99999.13;1781617;80;21128;-80
2022/02/25 02:05:23;;;;;;;1.37;0.60;;;;;;;5.57;67.68;100005.47;1781634;80;21751;-80
2022/02/25 02:07:51;;;;;;;1.12;0.60;;;;;;;5.52;67.79;100008.34;1781442;80;21526;-80
2022/02/25 02:10:18;;;;;;;0.65;0.28;;;;;;;5.45;67.80;100025.11;1781650;80;21077;-81
2022/02/25 02:12:47;;;;;;;3.45;0.57;;;;;;;5.39;67.87;100026.64;1781908;80;21011;-81
2022/02/25 02:15:14;;;;;;;1.47;0.53;;;;;;;5.33;68.02;100048.58;1781895;80;21544;-80
2022/02/25 02:17:41;;;;;;;0.98;0.55;;;;;;;5.29;68.14;100053.23;1781779;80;21698;-81
2022/02/25 02:20:08;;;;;;;0.93;0.60;;;;;;;5.24;68.24;100057.87;1781706;80;21370;-81
2022/02/25 02:22:35;;;;;;;1.00;0.47;;;;;;;5.17;68.23;100067.63;1781289;80;21023;-81
2022/02/25 02:25:03;;;;;;;1.62;0.60;;;;;;;5.13;68.29;100077.48;1781624;80;21074;-81
2022/02/25 02:30:15;;;;;;;0.80;0.57;;;;;;;5.10;68.41;100090.83;1781566;80;22643;-80
2022/02/25 02:32:42;;;;;;;0.53;0.45;;;;;;;5.09;68.45;100091.64;1781840;79;21667;-81
2022/02/25 02:35:09;;;;;;;0.50;0.50;;;;;;;5.06;68.39;100093.31;1781595;80;21650;-80
2022/02/25 02:37:35;;;;;;;0.90;0.45;;;;;;;5.05;68.44;100111.55;1781529;80;21034;-82
2022/02/25 02:40:05;;;;;;;1.17;0.53;;;;;;;5.03;68.43;100111.87;1781108;80;21632;-80
2022/02/25 02:42:32;;;;;;;0.60;0.33;;;;;;;4.98;68.39;100114.33;1781751;80;22670;-81
2022/02/25 02:44:59;;;;;;;0.35;0.30;;;;;;;4.94;68.38;100100.70;1781503;80;21627;-80
2022/02/25 02:47:26;;;;;;;1.57;0.50;;;;;;;4.87;68.30;100103.91;1781563;80;21071;-80
2022/02/25 02:49:52;;;;;;;0.75;0.55;;;;;;;4.78;68.25;100120.09;1781425;80;21047;-80
2022/02/25 02:52:19;;;;;;;1.02;0.33;;;;;;;4.70;68.33;100121.52;1781423;80;21583;-80
2022/02/25 02:54:45;;;;;;;0.62;0.28;;;;;;;4.61;68.31;100119.44;1781336;80;21690;-80
2022/02/25 02:57:12;;;;;;;0.25;0.25;;;;;;;4.53;68.31;100117.39;1781544;80;21051;-80
2022/02/25 02:59:39;;;;;;;0.85;0.35;;;;;;;4.43;68.40;100133.96;1781249;80;21050;-80
2022/02/25 03:02:06;;;;;;;0.70;0.45;;;;;;;4.39;68.52;100145.48;1781381;80;21058;-80
2022/02/25 03:04:32;;;;;;;0.47;0.47;;;;;;;4.36;68.64;100148.87;1781603;80;21078;-80
2022/02/25 03:06:59;;;;;;;0.80;0.30;;;;;;;4.35;68.64;100137.95;1781400;80;21700;-80
2022/02/25 03:09:25;;;;;;;0.45;0.33;;;;;;;4.35;68.63;100151.41;1781634;79;21489;-80
2022/02/25 03:11:54;;;;;;;0.70;0.40;;;;;;;4.32;68.68;100143.45;1781521;80;21109;-80
2022/02/25 03:14:20;;;;;;;0.35;0.35;;;;;;;4.29;68.69;100158.56;1781681;80;21190;-80
2022/02/25 03:16:47;;;;;;;0.55;0.30;;;;;;;4.28;68.71;100165.92;1781795;80;21719;-80
2022/02/25 03:19:13;;;;;;;0.65;0.37;;;;;;;4.26;68.83;100168.45;1781600;80;21639;-80
2022/02/25 03:21:40;;;;;;;0.33;0.30;;;;;;;4.28;69.07;100184.16;1782783;80;21090;-80
2022/02/25 03:24:09;;;;;;;0.30;0.30;;;;;;;4.26;69.22;100192.30;1784875;80;21008;-81
2022/02/25 03:26:35;;;;;;;0.30;0.30;;;;;;;4.26;69.57;100202.72;1785153;79;21177;-81
2022/02/25 03:29:03;;;;;;;0.30;0.30;;;;;;;4.22;69.74;100214.75;1785248;80;21093;-81
2022/02/25 03:31:31;;;;;;;0.20;0.20;;;;;;;4.19;69.95;100226.34;1784672;80;20999;-81
2022/02/25 03:33:58;;;;;;;0.28;0.28;;;;;;;4.16;70.21;100230.52;1785409;80;21027;-81
2022/02/25 03:36:24;;;;;;;0.30;0.30;;;;;;;4.07;70.31;100242.73;1785126;80;21344;-81
2022/02/25 03:38:51;;;;;;;0.42;0.30;;;;;;;3.96;70.47;100237.09;1784694;80;20995;-81
2022/02/25 03:41:18;;;;;;;0.35;0.35;;;;;;;3.85;70.73;100247.45;1785403;80;21077;-80
2022/02/25 03:43:44;;;;;;;0.80;0.40;;;;;;;3.70;70.71;100253.75;1785500;80;21744;-80
2022/02/25 03:46:11;;;;;;;0.53;0.40;;;;;;;3.56;70.83;100269.14;1785039;80;21070;-80
2022/02/25 03:48:37;;;;;;;0.68;0.40;;;;;;;3.43;71.05;100274.19;1785155;80;21485;-81
2022/02/25 03:51:04;;;;;;;0.62;0.37;;;;;;;3.31;71.12;100290.13;1785029;80;21055;-80
2022/02/25 03:53:31;;;;;;;0.47;0.40;;;;;;;3.21;71.25;100292.22;1784933;80;21510;-80
2022/02/25 03:55:58;;;;;;;0.62;0.42;;;;;;;3.12;71.47;100296.61;1785155;80;21747;-80
2022/02/25 03:58:24;;;;;;;1.40;0.40;;;;;;;3.09;71.76;100309.03;1785112;80;21285;-80
2022/02/25 04:00:51;;;;;;;2.83;0.47;;;;;;;3.12;71.94;100313.50;1784736;80;21045;-80
2022/02/25 04:03:18;;;;;;;2.17;0.70;;;;;;;3.13;71.86;100314.39;1785031;80;21640;-80
2022/02/25 04:05:44;;;;;;;1.52;0.57;;;;;;;3.11;71.85;100332.52;1758464;80;21027;-80
2022/02/25 04:08:11;;;;;;;2.15;0.70;;;;;;;3.12;72.04;100327.81;1784683;80;21741;-80
2022/02/25 04:10:37;;;;;;;1.15;0.60;;;;;;;3.17;72.10;100332.80;1784747;80;21470;-80
2022/02/25 04:13:04;;;;;;;1.72;0.50;;;;;;;3.22;72.16;100343.02;1784916;80;21054;-80
2022/02/25 04:15:31;;;;;;;0.82;0.50;;;;;;;3.26;72.16;100336.26;1784864;80;21580;-80
2022/02/25 04:17:58;;;;;;;1.02;0.47;;;;;;;3.25;71.94;100340.58;1784959;80;21046;-80
2022/02/25 04:20:24;;;;;;;3.80;0.57;;;;;;;3.15;71.81;100345.26;1785038;80;21786;-80
2022/02/25 04:22:51;;;;;;;1.50;0.37;;;;;;;3.00;71.71;100355.80;1781901;80;21210;-80
2022/02/25 04:25:18;;;;;;;1.02;0.47;;;;;;;2.87;71.78;100363.41;1781445;79;21148;-80
2022/02/25 04:27:44;;;;;;;2.15;0.47;;;;;;;2.75;71.84;100370.61;1781568;80;21145;-80
2022/02/25 04:30:11;;;;;;;1.02;0.57;;;;;;;2.64;71.94;100362.27;1781640;80;21034;-80
2022/02/25 04:32:38;;;;;;;2.05;0.57;;;;;;;2.56;72.12;100373.57;1781687;80;21729;-80
2022/02/25 04:35:05;;;;;;;1.45;0.53;;;;;;;2.48;72.17;100377.08;1781540;80;21140;-81
2022/02/25 04:37:32;;;;;;;1.20;0.40;;;;;;;2.42;72.31;100383.27;1781949;80;21165;-80
2022/02/25 04:39:58;;;;;;;1.98;0.70;;;;;;;2.37;72.35;100382.13;1781732;80;21524;-81
2022/02/25 04:42:26;;;;;;;2.27;0.82;;;;;;;2.29;72.38;100383.41;1781879;79;21062;-81
2022/02/25 04:44:52;;;;;;;1.60;0.42;;;;;;;2.21;72.52;100397.71;1782151;79;22409;-81
2022/02/25 04:47:19;;;;;;;0.88;0.40;;;;;;;2.19;72.74;100412.32;1781988;80;21674;-81
2022/02/25 04:49:45;;;;;;;1.27;0.50;;;;;;;2.26;73.10;100422.23;1781977;80;21011;-80
2022/02/25 04:52:13;;;;;;;3.30;0.80;;;;;;;2.40;73.27;100419.05;1781889;80;21058;-81
2022/02/25 04:54:39;;;;;;;1.72;1.05;;;;;;;2.52;73.14;100421.00;1782040;80;21474;-81
2022/02/25 04:57:06;;;;;;;3.65;1.20;;;;;;;2.53;72.80;100427.96;1781615;80;21700;-80
2022/02/25 04:59:33;;;;;;;3.72;1.20;;;;;;;2.45;72.54;100427.98;1781882;80;21023;-81
2022/02/25 05:01:59;;;;;;;2.83;0.95;;;;;;;2.37;72.44;100440.57;1781466;80;21062;-81
2022/02/25 05:04:26;;;;;;;3.10;1.10;;;;;;;2.30;72.46;100435.44;1781948;80;21054;-81
2022/02/25 05:06:52;;;;;;;2.65;0.88;;;;;;;2.24;72.47;100435.12;1782058;80;21513;-81
2022/02/25 05:09:19;;;;;;;5.72;1.10;;;;;;;2.11;72.45;100434.88;1781888;80;21737;-81
2022/02/25 05:11:46;;;;;;;4.42;1.32;;;;;;;2.11;72.52;100450.86;1781956;80;21051;-81
2022/02/25 05:22:28;;;;;;;4.67;1.35;;;;;;;1.88;72.84;100470.39;1777077;79;21804;-80
2022/02/25 05:32:24;;;;;;;5.50;1.72;;;;;;;1.78;73.08;100482.34;1796372;79;21097;-81
2022/02/25 05:34:51;;;;;;;4.47;1.75;;;;;;;1.77;73.20;100489.66;1796666;79;21034;-81
2022/02/25 05:37:17;;;;;;;3.20;1.10;;;;;;;1.77;73.30;100493.55;1796801;79;21685;-82
2022/02/25 05:39:44;;;;;;;4.80;1.27;;;;;;;1.78;73.35;100487.13;1796978;79;21003;-81
2022/02/25 05:42:11;;;;;;;3.75;1.32;;;;;;;1.78;73.33;100509.59;1796804;79;21092;-80
2022/02/25 05:44:37;;;;;;;5.62;1.67;;;;;;;1.76;73.42;100513.39;1796422;78;21058;-81
2022/02/25 05:47:04;;;;;;;3.47;1.30;;;;;;;1.77;73.45;100519.09;1796436;78;21041;-80
2022/02/25 05:49:31;;;;;;;5.55;1.55;;;;;;;1.81;73.58;100529.23;1796391;79;22520;-80
2022/02/25 05:51:57;;;;;;;6.78;1.55;;;;;;;1.85;73.58;100526.00;1796131;78;21564;-80
2022/02/25 05:54:25;;;;;;;5.33;1.20;;;;;;;1.90;73.58;100525.87;1796349;79;21097;-79
2022/02/25 05:56:52;;;;;;;6.78;1.27;;;;;;;1.94;73.65;100538.20;1796226;78;21058;-80
2022/02/25 05:59:19;;;;;;;3.40;1.45;;;;;;;2.00;73.64;100548.92;1796064;79;21069;-80
2022/02/25 06:01:45;;;;;;;7.10;2.08;;;;;;;2.08;73.81;100547.66;1796274;78;21717;-80
2022/02/25 06:04:12;;;;;;;6.87;1.47;;;;;;;2.18;73.75;100550.74;1794253;79;21586;-80
2022/02/25 06:06:39;;;;;;;7.40;1.50;;;;;;;2.21;73.62;100543.13;1759608;81;21057;-80
2022/02/25 06:09:05;;;;;;;6.33;1.82;;;;;;;2.24;73.55;100555.00;1792157;80;21214;-80
2022/02/25 06:11:32;;;;;;;3.98;1.35;;;;;;;2.27;73.54;100559.96;1753454;79;21699;-81
2022/02/25 06:13:59;;;;;;;6.33;1.45;;;;;;;2.37;73.66;100565.25;1780037;78;22552;-81
2022/02/25 06:16:26;;;;;;;3.05;1.30;;;;;;;2.49;73.61;100568.91;1796173;79;21042;-81
2022/02/25 06:18:52;;;;;;;2.33;1.10;;;;;;;2.60;73.61;100568.20;1796206;78;21042;-82
2022/02/25 06:21:19;;;;;;;3.70;1.30;;;;;;;2.71;73.59;100574.45;1796006;78;21730;-81
2022/02/25 06:23:46;;;;;;;6.40;2.02;;;;;;;2.77;73.40;100563.91;1788150;78;21046;-81
2022/02/25 06:26:12;;;;;;;3.67;1.40;;;;;;;2.79;73.25;100568.36;1787025;79;22601;-81
2022/02/25 06:28:39;;;;;;;3.77;1.40;;;;;;;2.81;73.19;100573.23;1787253;78;21058;-81
2022/02/25 06:31:06;;;;;;;5.97;1.52;;;;;;;2.80;73.08;100572.77;1787350;80;21640;-81
2022/02/25 06:33:33;;;;;;;5.80;1.80;;;;;;;2.81;72.98;100573.65;1787361;78;21074;-81
2022/02/25 06:36:01;;;;;;;5.78;1.60;;;;;;;2.87;72.99;100582.69;1787454;78;21592;-81
2022/02/25 06:38:27;;;;;;;6.47;2.12;;;;;;;2.97;73.03;100585.77;1787438;78;22420;-81
2022/02/25 06:40:54;;;;;;;7.08;1.65;;;;;;;3.03;72.91;100587.39;1787256;78;21555;-81
2022/02/25 06:43:21;;;;;;;4.05;1.50;;;;;;;3.07;72.83;100595.83;1787478;79;21555;-81
2022/02/25 06:45:48;;;;;;;5.58;1.40;;;;;;;3.11;72.77;100590.86;1787683;79;21158;-81
2022/02/25 06:48:14;;;;;;;5.97;1.52;;;;;;;3.16;72.75;100600.63;1787632;79;21069;-81
2022/02/25 06:50:41;;;;;;;9.45;1.92;;;;;;;3.23;72.67;100606.61;1787725;79;21782;-81
2022/02/25 06:53:07;;;;;;;11.22;1.72;;;;;;;3.33;72.71;100616.70;1787562;80;21105;-81
2022/02/25 06:55:34;;;;;;;4.75;1.47;;;;;;;3.45;72.68;100614.74;1787717;78;21038;-81
2022/02/25 06:58:05;;;;;;;6.12;1.57;;;;;;;3.58;72.62;100625.34;1787439;78;21126;-81
2022/02/25 07:00:34;;;;;;;6.12;1.80;;;;;;;3.69;72.39;100618.09;1787665;79;21129;-81
2022/02/25 07:03:01;;;;;;;5.83;1.72;;;;;;;3.70;72.06;100621.19;1787196;79;21759;-81
2022/02/25 07:05:28;;;;;;;7.80;1.92;;;;;;;3.67;71.88;100629.72;1787310;79;21109;-81
2022/02/25 07:07:55;;;;;;;7.85;1.92;;;;;;;3.65;71.75;100626.56;1787398;79;21026;-81
2022/02/25 07:10:22;;;;;;;7.40;1.82;;;;;;;3.61;71.67;100632.02;1787430;78;21048;-81
2022/02/25 07:12:48;;;;;;;3.80;1.52;;;;;;;3.60;71.67;100639.74;1787721;78;20991;-81
2022/02/25 07:15:15;;;;;;;6.20;1.75;;;;;;;3.61;71.58;100648.94;1788108;78;21733;-80
2022/02/25 07:17:42;;;;;;;8.38;2.70;;;;;;;3.60;71.56;100647.55;1788073;78;21642;-81
2022/02/25 07:20:09;;;;;;;10.53;2.25;;;;;;;3.61;71.55;100655.44;1787729;78;21054;-81
2022/02/25 07:22:37;;;;;;;8.43;2.20;;;;;;;3.62;71.45;100657.63;1784357;78;21580;-81
2022/02/25 07:25:05;;;;;;;7.42;2.42;;;;;;;3.64;71.37;100654.31;1778816;79;21056;-81
2022/02/25 07:27:31;;;;;;;12.45;2.00;;;;;;;3.67;71.28;100653.14;1779176;80;23139;-81
2022/02/25 07:29:58;;;;;;;6.72;1.85;;;;;;;3.73;71.27;100657.77;1778980;80;21015;-81
2022/02/25 07:32:26;;;;;;;8.05;1.87;;;;;;;3.77;71.21;100664.03;1779102;80;21066;-81
2022/02/25 07:34:53;;;;;;;10.58;1.82;;;;;;;3.80;71.07;100669.41;1779101;80;21051;-81
2022/02/25 07:37:20;;;;;;;10.58;2.22;;;;;;;3.84;70.94;100669.62;1778928;80;21671;-81
2022/02/25 07:39:46;;;;;;;8.75;1.77;;;;;;;3.89;70.83;100673.78;1779199;80;21755;-81
2022/02/25 07:42:13;;;;;;;5.37;1.75;;;;;;;3.91;70.66;100676.05;1779002;80;21352;-81
2022/02/25 07:44:40;;;;;;;5.22;1.98;;;;;;;3.95;70.52;100683.19;1779216;80;21046;-81
2022/02/25 07:47:06;;;;;;;7.65;1.90;;;;;;;3.99;70.33;100680.34;1779038;80;21165;-81
2022/02/25 07:49:34;;;;;;;7.65;1.98;;;;;;;4.02;70.31;100689.20;1779265;79;21542;-81
2022/02/25 07:52:00;;;;;;;9.90;2.62;;;;;;;4.07;70.18;100699.45;1779230;80;21759;-81
2022/02/25 07:54:30;;;;;;;8.75;2.10;;;;;;;4.12;70.00;100701.39;1779175;80;21023;-81
2022/02/25 07:56:55;;;;;;;6.15;2.42;;;;;;;4.18;70.08;100708.20;1780321;80;21054;-81
2022/02/25 07:59:22;;;;;;;10.03;2.80;;;;;;;4.22;69.97;100711.44;1780244;80;21606;-81
2022/02/25 08:01:49;;;;;;;9.55;2.60;;;;;;;4.23;69.87;100709.33;1788492;80;21089;-81
2022/02/25 08:04:15;;;;;;;12.85;4.55;;;;;;;4.25;69.78;100711.59;1788320;80;21736;-80
2022/02/25 08:06:45;;;;;;;7.65;2.67;;;;;;;4.27;69.74;100722.57;1788451;80;21016;-81
2022/02/25 08:09:10;;;;;;;8.00;2.15;;;;;;;4.30;69.63;100723.16;1788238;80;21062;-81
2022/02/25 08:11:37;;;;;;;6.92;2.15;;;;;;;4.35;69.69;100720.34;1788466;80;21533;-81
2022/02/25 08:14:04;;;;;;;8.80;2.52;;;;;;;4.45;69.60;100717.39;1788385;80;20992;-81
2022/02/25 08:16:30;;;;;;;12.37;2.80;;;;;;;4.53;69.51;100720.37;1788141;80;22643;-80
2022/02/25 08:18:57;;;;;;;11.83;3.02;;;;;;;4.63;69.37;100724.30;1788155;80;21046;-80
2022/02/25 08:21:24;;;;;;;17.35;4.67;;;;;;;4.77;69.24;100732.81;1788181;80;21054;-81
2022/02/25 08:23:50;;;;;;;23.40;10.72;;;;;;;4.83;69.01;100733.98;1777205;79;21628;-81
2022/02/25 08:26:17;;;;;;;15.00;3.95;;;;;;;4.85;68.85;100724.52;1771422;80;21079;-81
2022/02/25 08:28:44;;;;;;;18.42;6.33;;;;;;;4.88;68.50;100731.61;1771830;79;21768;-81
2022/02/25 08:31:11;;;;;;;18.40;9.05;;;;;;;4.87;68.46;100735.91;1771615;80;21114;-81
2022/02/25 08:33:39;;;;;;;18.40;9.68;;;;;;;4.91;68.52;100746.08;1771509;79;21074;-81
2022/02/25 08:36:06;;;;;;;30.43;15.43;;;;;;;4.91;68.30;100734.77;1771394;79;21210;-81
2022/02/25 08:38:33;;;;;;;21.27;13.50;;;;;;;4.91;68.28;100741.28;1771419;80;21067;-81
2022/02/25 08:41:01;;;;;;;21.70;8.00;;;;;;;4.94;68.32;100743.62;1771453;79;21762;-81
2022/02/25 08:43:27;;;;;;;11.45;3.75;;;;;;;5.02;68.38;100743.57;1771391;80;21079;-81
2022/02/25 08:45:54;;;;;;;13.20;4.58;;;;;;;5.18;68.35;100746.50;1771524;80;21016;-81
2022/02/25 08:48:21;;;;;;;7.17;3.10;;;;;;;5.29;68.08;100763.06;1771436;79;21031;-81
2022/02/25 08:50:47;;;;;;;7.90;3.17;;;;;;;5.37;67.95;100752.16;1771666;80;21079;-81
2022/02/25 08:53:14;;;;;;;13.85;4.10;;;;;;;5.50;67.99;100752.70;1771628;80;21968;-81
2022/02/25 08:55:40;;;;;;;15.13;3.15;;;;;;;5.67;68.02;100763.52;1771511;79;21075;-81
2022/02/25 08:58:07;;;;;;;11.57;3.17;;;;;;;5.90;67.92;100764.95;1771538;79;21063;-81
2022/02/25 09:00:34;;;;;;;8.73;4.12;;;;;;;6.15;67.70;100754.75;1771344;80;21150;-81
2022/02/25 09:03:00;;;;;;;12.43;3.95;;;;;;;6.25;67.26;100759.98;1771466;79;21051;-81
2022/02/25 09:05:27;;;;;;;12.43;5.28;;;;;;;6.31;66.80;100750.20;1771408;80;22560;-81
2022/02/25 09:07:54;;;;;;;19.45;7.65;;;;;;;6.26;66.54;100761.75;1771436;80;21058;-81
2022/02/25 09:10:22;;;;;;;21.07;6.50;;;;;;;6.19;66.21;100759.31;1771604;80;21339;-81
2022/02/25 09:12:48;;;;;;;8.75;3.40;;;;;;;6.16;66.32;100773.54;1771773;80;21103;-80
2022/02/25 09:15:22;;;;;;;12.25;3.92;;;;;;;6.23;66.25;100761.61;1771602;79;21095;-81
2022/02/25 09:17:46;;;;;;;9.00;4.50;;;;;;;6.28;66.17;100761.82;1771232;79;21762;-81
2022/02/25 09:20:13;;;;;;;18.25;5.10;;;;;;;6.15;65.63;100758.67;1771367;80;21537;-81
2022/02/25 09:22:40;;;;;;;11.43;4.37;;;;;;;6.03;65.68;100762.08;1771441;80;21053;-81
2022/02/25 09:25:08;;;;;;;16.67;5.53;;;;;;;5.93;65.56;100763.76;1771151;79;21141;-81
2022/02/25 09:27:34;;;;;;;18.45;7.45;;;;;;;5.86;65.55;100769.14;1771456;80;21047;-80
2022/02/25 09:30:01;;;;;;;22.25;7.72;;;;;;;5.83;65.77;100776.83;1771446;79;21744;-81
2022/02/25 09:32:28;;;;;;;21.87;7.17;;;;;;;5.81;65.73;100772.84;1771280;79;21052;-81
2022/02/25 09:34:55;;;;;;;17.57;6.05;;;;;;;5.78;65.51;100775.72;1771508;79;21553;-81
2022/02/25 09:37:22;;;;;;;14.33;5.60;;;;;;;5.74;65.49;100778.61;1771572;80;21059;-81
2022/02/25 09:39:49;;;;;;;17.92;6.90;;;;;;;5.74;65.59;100778.61;1771846;80;21241;-81
2022/02/25 09:42:17;;;;;;;21.02;10.03;;;;;;;5.76;65.57;100784.83;1771511;79;21748;-81
2022/02/25 09:44:44;;;;;;;12.10;6.80;;;;;;;5.81;65.67;100781.98;1743575;80;21325;-81
2022/02/25 09:47:10;;;;;;;15.98;6.45;;;;;;;5.80;65.37;100781.52;1771481;80;21063;-81
2022/02/25 09:49:37;;;;;;;12.70;6.53;;;;;;;5.79;65.40;100791.47;1771639;79;21035;-81
2022/02/25 09:52:04;;;;;;;12.90;5.60;;;;;;;5.83;65.45;100787.28;1771754;80;21116;-81
2022/02/25 09:54:30;;;;;;;11.20;4.92;;;;;;;5.84;65.46;100794.31;1771455;79;22726;-81
2022/02/25 09:56:57;;;;;;;14.47;4.78;;;;;;;5.90;65.44;100802.41;1771520;79;21059;-81
2022/02/25 09:59:24;;;;;;;14.47;4.60;;;;;;;5.96;65.32;100810.97;1771656;79;21078;-81
2022/02/25 10:01:50;;;;;;;10.38;4.10;;;;;;;6.06;65.33;100808.34;1771609;80;21610;-81
2022/02/25 10:04:20;;;;;;;18.92;8.13;;;;;;;6.27;65.50;100809.30;1771684;80;21062;-81
2022/02/25 10:06:46;;;;;;;22.73;8.58;;;;;;;6.51;65.39;100813.77;1743883;80;21774;-81
2022/02/25 10:09:38;;;;;;;33.92;14.98;;;;;;;6.61;64.92;100811.61;1771113;79;21066;-81
2022/02/25 10:12:10;;;;;;;55.08;22.25;;;;;;;6.57;64.45;100813.63;1771445;79;21086;-81
2022/02/25 10:14:40;;;;;;;20.75;9.78;;;;;;;6.47;64.10;100814.05;1771634;80;21609;-80
2022/02/25 10:17:20;;;;;;;19.92;8.35;;;;;;;6.43;64.10;100814.75;1771372;79;21055;-81
2022/02/25 10:19:53;;;;;;;15.63;5.20;;;;;;;6.40;64.20;100809.38;1680925;83;21789;-81
2022/02/25 10:22:28;;;;;;;10.58;3.90;;;;;;;6.38;63.88;100814.96;1681499;83;21181;-81
2022/02/25 10:25:06;;;;;;;9.40;4.22;;;;;;;6.27;63.78;100819.75;1669845;84;21114;-81
2022/02/25 10:27:40;;;;;;;13.13;3.95;;;;;;;6.20;63.89;100817.69;1666912;84;21294;-81
2022/02/25 10:30:16;;;;;;;17.80;7.30;;;;;;;6.21;63.95;100820.77;1622536;86;21133;-81
2022/02/25 10:32:51;;;;;;;8.33;4.40;;;;;;;6.22;63.84;100816.03;1666925;85;21780;-81
2022/02/25 10:35:40;;;;;;;12.47;3.92;;;;;;;6.24;63.84;100820.91;1622132;86;21658;-81
2022/02/25 10:38:14;;;;;;;16.82;3.98;;;;;;;6.29;63.85;100826.33;1667035;86;21107;-81
2022/02/25 10:40:46;;;;;;;12.10;4.28;;;;;;;6.37;63.89;100836.72;1622355;86;21787;-80
2022/02/25 10:43:27;;;;;;;10.00;3.37;;;;;;;6.50;63.87;100840.77;1666847;86;21072;-81
2022/02/25 10:46:03;;;;;;;9.48;3.00;;;;;;;6.87;63.96;100853.67;1622553;88;21659;-80
2022/02/25 10:48:33;;;;;;;8.83;2.50;;;;;;;7.22;63.61;100846.77;1644910;86;21122;-81
2022/02/25 10:51:02;;;;;;;11.03;2.85;;;;;;;7.51;63.46;100850.13;1622563;86;21196;-81
2022/02/25 10:53:36;;;;;;;10.95;4.00;;;;;;;7.67;63.11;100846.36;1667293;85;21697;-81
2022/02/25 10:56:16;;;;;;;12.15;3.83;;;;;;;7.68;62.55;100857.33;1639993;81;22522;-81
2022/02/25 10:58:52;;;;;;;12.58;5.40;;;;;;;7.63;62.28;100851.01;1753285;81;21778;-81
2022/02/25 11:01:26;;;;;;;11.15;4.10;;;;;;;7.63;62.23;100861.49;1753013;81;21588;-81
2022/02/25 11:04:07;;;;;;;12.00;4.00;;;;;;;7.72;62.28;100851.79;1752070;81;21072;-81
2022/02/25 11:06:34;;;;;;;17.05;9.60;;;;;;;7.84;62.21;100852.66;1732592;82;21072;-81
2022/02/25 11:09:01;;;;;;;11.73;6.33;;;;;;;7.85;61.78;100857.09;1745396;81;21127;-81
2022/02/25 11:11:28;;;;;;;10.30;4.62;;;;;;;7.86;61.98;100866.29;1745257;81;21228;-81
2022/02/25 11:13:55;;;;;;;12.90;6.75;;;;;;;7.87;61.72;100862.84;1745296;81;21746;-81
2022/02/25 11:16:22;;;;;;;15.58;6.37;;;;;;;7.85;61.54;100868.88;1745361;82;21060;-80
2022/02/25 11:18:49;;;;;;;11.40;4.37;;;;;;;7.63;61.17;100865.42;1745446;81;20990;-80
2022/02/25 11:21:16;;;;;;;22.05;6.95;;;;;;;7.50;61.44;100869.28;1745260;82;21696;-80
2022/02/25 11:23:43;;;;;;;11.22;4.42;;;;;;;7.61;61.69;100880.19;1728160;80;22063;-80
2022/02/25 11:26:11;;;;;;;13.88;5.70;;;;;;;7.78;61.47;100879.53;1787765;79;21500;-80
2022/02/25 11:28:40;;;;;;;16.55;7.05;;;;;;;8.00;61.46;100882.55;1787752;79;21658;-80
2022/02/25 11:31:32;;;;;;;25.75;10.58;;;;;;;8.16;61.12;100891.87;1655457;86;21137;-80
2022/02/25 11:34:00;;;;;;;31.10;14.65;;;;;;;8.23;60.84;100884.70;1700601;84;21088;-80
2022/02/25 11:36:45;;;;;;;16.77;6.70;;;;;;;8.31;60.95;100901.60;1700749;84;22930;-81
2022/02/25 11:39:25;;;;;;;9.60;3.92;;;;;;;8.40;60.63;100893.61;1700828;84;21163;-80
2022/02/25 11:42:01;;;;;;;13.93;5.00;;;;;;;8.44;60.47;100899.47;1701098;84;21940;-81
2022/02/25 11:44:28;;;;;;;11.53;3.62;;;;;;;8.48;60.26;100894.37;1700928;84;21570;-81
2022/02/25 11:46:55;;;;;;;10.18;3.10;;;;;;;8.58;60.30;100898.64;1700975;84;21099;-81
2022/02/25 11:49:26;;;;;;;10.20;3.47;;;;;;;8.69;60.18;100894.66;1677171;84;21994;-81
2022/02/25 11:52:02;;;;;;;10.85;4.78;;;;;;;8.69;59.86;100886.39;1700776;84;21170;-80